Time;durP1;ratioP1;P1;durP2;ratioP2;P2;SDS_P1;SDS_P2;PMS_P1;PMS_P2;Temp;Humidity;BMP_temperature;BMP_pressure;BME280_temperature;BME280_humidity;BME280_pressure;Samples;Min_cycle;Max_cycle;Signal;HPM_P1;HPM_P2
2022/08/10 00:02:41;;;;;;;;;;;;;;;20.26;39.07;97081.31;5045213;28;19983;-73
2022/08/10 00:05:08;;;;;;;;;;;;;;;20.23;39.62;97095.16;5047548;28;20017;-73
2022/08/10 00:07:34;;;;;;;;;;;;;;;20.22;38.91;97090.88;5040393;28;19959;-73
2022/08/10 00:09:59;;;;;;;;;;;;;;;20.17;39.96;97089.00;5042972;28;19991;-73
2022/08/10 00:12:25;;;;;;;;;;;;;;;20.15;39.80;97093.81;5045119;28;19960;-73
2022/08/10 00:14:51;;;;;;;;;;;;;;;20.10;39.42;97088.47;5049350;28;20365;-74
2022/08/10 00:17:17;;;;;;;;;;;;;;;20.06;40.09;97085.53;5048058;28;20047;-73
2022/08/10 00:19:43;;;;;;;;;;;;;;;20.02;40.04;97089.78;5039197;28;19963;-73
2022/08/10 00:22:10;;;;;;;;;;;;;;;20.00;39.75;97088.44;5045848;28;20331;-73
2022/08/10 00:24:36;;;;;;;;;;;;;;;19.99;40.92;97097.50;5044916;28;20378;-73
2022/08/10 00:27:02;;;;;;;;;;;;;;;19.98;40.25;97091.38;5044040;28;19959;-73
2022/08/10 00:29:28;;;;;;;;;;;;;;;20.00;41.09;97091.91;5042070;28;20349;-74
2022/08/10 00:31:54;;;;;;;;;;;;;;;20.01;41.23;97088.19;5044248;28;19986;-74
2022/08/10 00:34:20;;;;;;;;;;;;;;;20.01;40.08;97084.72;5042184;28;20053;-73
2022/08/10 00:36:46;;;;;;;;;;;;;;;20.00;41.32;97091.91;5051301;28;20317;-74
2022/08/10 00:39:12;;;;;;;;;;;;;;;20.02;40.06;97087.13;5039904;28;19955;-73
2022/08/10 00:41:38;;;;;;;;;;;;;;;20.04;41.37;97097.53;5046124;28;19965;-74
2022/08/10 00:44:04;;;;;;;;;;;;;;;20.05;41.52;97088.44;5046762;28;19995;-74
2022/08/10 00:46:29;;;;;;;;;;;;;;;20.01;41.25;97088.19;5040396;28;20296;-74
2022/08/10 00:48:55;;;;;;;;;;;;;;;20.00;41.27;97089.25;5047398;28;19956;-73
2022/08/10 00:51:21;;;;;;;;;;;;;;;19.96;41.68;97087.38;5045278;28;20432;-73
2022/08/10 00:53:47;;;;;;;;;;;;;;;19.92;40.47;97080.97;5046007;28;19964;-73
2022/08/10 00:56:13;;;;;;;;;;;;;;;19.82;40.93;97082.56;5043778;28;19960;-73
2022/08/10 00:58:39;;;;;;;;;;;;;;;19.77;40.25;97071.09;5041950;28;19966;-74
2022/08/10 01:01:05;;;;;;;;;;;;;;;19.68;42.01;97084.84;5046543;28;19966;-73
2022/08/10 01:03:31;;;;;;;;;;;;;;;19.65;42.49;97090.72;5047268;28;19962;-73
2022/08/10 01:06:08;;;;;;;;;;;;;;;19.61;41.73;97088.81;5034276;28;20341;-73
2022/08/10 01:08:43;;;;;;;;;;;;;;;19.59;41.82;97089.09;5044146;28;19960;-72
2022/08/10 01:11:24;;;;;;;;;;;;;;;19.60;42.33;97076.59;5040627;28;19969;-72
2022/08/10 01:13:56;;;;;;;;;;;;;;;19.61;42.61;97076.31;5044924;28;19955;-73
2022/08/10 01:16:21;;;;;;;;;;;;;;;19.63;41.20;97076.03;5045179;28;19959;-73
2022/08/10 01:18:52;;;;;;;;;;;;;;;19.61;41.78;97084.31;5045262;28;19959;-72
2022/08/10 01:21:31;;;;;;;;;;;;;;;19.61;42.09;97078.16;5048665;28;19967;-72
2022/08/10 01:23:57;;;;;;;;;;;;;;;19.57;42.03;97088.56;5036769;28;20341;-73
2022/08/10 01:26:22;;;;;;;;;;;;;;;19.55;42.54;97090.66;5044267;28;19955;-73
2022/08/10 01:29:11;;;;;;;;;;;;;;;19.55;42.45;97092.50;5041823;28;20470;-73
2022/08/10 01:31:40;;;;;;;;;;;;;;;19.53;43.45;97106.09;5036225;28;19988;-73
2022/08/10 01:34:11;;;;;;;;;;;;;;;19.53;43.18;97091.97;5044843;28;20307;-72
2022/08/10 01:36:42;;;;;;;;;;;;;;;19.55;42.63;97090.66;5044187;28;19957;-72
2022/08/10 01:39:11;;;;;;;;;;;;;;;19.49;42.31;97083.72;5044965;28;19955;-73
2022/08/10 01:41:39;;;;;;;;;;;;;;;19.46;42.88;97086.88;5046025;28;19965;-73
2022/08/10 01:44:10;;;;;;;;;;;;;;;19.45;42.45;97083.44;5042379;28;19948;-73
2022/08/10 01:46:38;;;;;;;;;;;;;;;19.46;42.78;97089.53;5043622;28;19964;-74
2022/08/10 01:49:07;;;;;;;;;;;;;;;19.42;42.91;97083.13;5046491;28;19961;-74
2022/08/10 01:51:56;;;;;;;;;;;;;;;19.36;43.17;97084.16;5043581;28;19976;-74
2022/08/10 01:54:24;;;;;;;;;;;;;;;19.30;43.26;97094.00;5036192;28;19953;-74
2022/08/10 01:56:52;;;;;;;;;;;;;;;19.27;43.42;97091.84;5044172;28;20356;-74
2022/08/10 01:59:22;;;;;;;;;;;;;;;19.29;43.65;97088.94;5044359;28;20437;-73
2022/08/10 02:01:49;;;;;;;;;;;;;;;19.29;44.05;97094.25;5038320;28;19964;-73
2022/08/10 02:04:16;;;;;;;;;;;;;;;19.27;43.62;97089.97;5041942;28;19956;-73
2022/08/10 02:06:45;;;;;;;;;;;;;;;19.25;43.70;97088.63;5049649;28;19956;-73
2022/08/10 02:09:13;;;;;;;;;;;;;;;19.22;44.10;97086.50;5045982;28;20434;-74
2022/08/10 02:11:39;;;;;;;;;;;;;;;19.21;44.10;97088.38;5040863;28;19970;-73
2022/08/10 02:14:05;;;;;;;;;;;;;;;19.22;44.02;97089.97;5038801;28;19965;-73
2022/08/10 02:16:31;;;;;;;;;;;;;;;19.18;43.78;97088.88;5040708;28;19966;-73
2022/08/10 02:18:58;;;;;;;;;;;;;;;19.13;44.24;97091.50;5044081;28;19949;-73
2022/08/10 02:21:25;;;;;;;;;;;;;;;19.10;44.29;97092.00;5048578;28;19959;-74
2022/08/10 02:23:51;;;;;;;;;;;;;;;19.11;43.99;97090.16;5044238;28;19964;-73
2022/08/10 02:26:17;;;;;;;;;;;;;;;19.10;44.42;97086.69;5044743;28;19966;-73
2022/08/10 02:28:44;;;;;;;;;;;;;;;19.10;44.70;97092.00;5043455;28;20383;-73
2022/08/10 02:31:12;;;;;;;;;;;;;;;19.11;42.88;97072.38;5044286;28;19977;-73
2022/08/10 02:33:41;;;;;;;;;;;;;;;19.09;44.40;97085.09;5037786;28;19964;-73
2022/08/10 02:36:08;;;;;;;;;;;;;;;19.05;44.78;97082.16;5042058;28;19965;-73
2022/08/10 02:38:49;;;;;;;;;;;;;;;19.03;45.42;97080.81;5048517;28;20428;-73
2022/08/10 02:41:27;;;;;;;;;;;;;;;19.00;44.00;97087.44;5040647;28;19956;-73
2022/08/10 02:44:04;;;;;;;;;;;;;;;18.97;44.63;97085.28;5034699;28;19949;-73
2022/08/10 02:46:44;;;;;;;;;;;;;;;18.94;44.66;97080.50;5042275;28;19952;-73
2022/08/10 02:49:12;;;;;;;;;;;;;;;18.91;43.89;97083.66;5037443;28;20296;-73
2022/08/10 02:51:43;;;;;;;;;;;;;;;18.91;44.22;97081.00;5051586;28;19970;-73
2022/08/10 02:54:13;;;;;;;;;;;;;;;18.91;45.70;97090.84;5048153;28;19964;-73
2022/08/10 02:56:50;;;;;;;;;;;;;;;18.90;45.59;97083.91;5049598;28;19956;-73
2022/08/10 02:59:22;;;;;;;;;;;;;;;18.88;45.29;97088.66;5047674;28;19962;-73
2022/08/10 03:01:49;;;;;;;;;;;;;;;18.85;45.10;97084.66;5041518;28;19967;-73
2022/08/10 03:04:20;;;;;;;;;;;;;;;18.82;45.61;97083.31;5050686;28;20416;-73
2022/08/10 03:06:59;;;;;;;;;;;;;;;18.82;46.26;97090.50;5051426;28;19959;-73
2022/08/10 03:09:25;;;;;;;;;;;;;;;18.77;45.24;97083.28;5029998;28;19955;-73
2022/08/10 03:11:53;;;;;;;;;;;;;;;18.74;45.68;97082.97;5041294;28;20449;-73
2022/08/10 03:14:19;;;;;;;;;;;;;;;18.73;45.54;97098.13;5048894;28;19955;-73
2022/08/10 03:16:45;;;;;;;;;;;;;;;18.71;45.79;97091.44;5048029;28;19963;-73
2022/08/10 03:19:12;;;;;;;;;;;;;;;18.67;46.46;97091.16;5042010;28;20446;-73
2022/08/10 03:21:38;;;;;;;;;;;;;;;18.67;46.42;97096.47;5046232;28;19965;-72
2022/08/10 03:24:04;;;;;;;;;;;;;;;18.65;46.25;97094.06;5048847;28;20337;-73
2022/08/10 03:26:31;;;;;;;;;;;;;;;18.62;46.55;97099.06;5046356;28;19960;-73
2022/08/10 03:29:02;;;;;;;;;;;;;;;18.60;45.62;97096.66;5043852;28;19986;-73
2022/08/10 03:31:28;;;;;;;;;;;;;;;18.56;46.76;97108.88;5059559;28;19977;-73
2022/08/10 03:33:55;;;;;;;;;;;;;;;18.48;45.62;97105.84;5045509;28;19964;-72
2022/08/10 03:36:21;;;;;;;;;;;;;;;18.36;45.59;97093.53;5045041;28;19975;-73
2022/08/10 03:38:50;;;;;;;;;;;;;;;18.29;45.94;97100.09;5048739;28;19971;-72
2022/08/10 03:41:18;;;;;;;;;;;;;;;18.26;47.41;97098.75;5043047;28;19962;-73
2022/08/10 03:43:46;;;;;;;;;;;;;;;18.24;47.34;97093.69;5044242;28;20347;-74
2022/08/10 03:46:14;;;;;;;;;;;;;;;18.20;46.36;97089.13;5048162;28;20329;-73
2022/08/10 03:48:40;;;;;;;;;;;;;;;18.15;46.79;97095.19;5047146;28;19965;-73
2022/08/10 03:51:07;;;;;;;;;;;;;;;18.14;46.70;97082.19;5045805;28;19972;-73
2022/08/10 03:53:34;;;;;;;;;;;;;;;18.13;47.35;97097.31;5045688;28;20468;-73
2022/08/10 03:56:00;;;;;;;;;;;;;;;18.13;48.39;97092.00;5044842;28;19956;-73
2022/08/10 03:58:26;;;;;;;;;;;;;;;18.12;47.69;97089.59;5043986;28;19970;-73
2022/08/10 04:00:52;;;;;;;;;;;;;;;18.11;48.34;97098.63;5045240;28;19966;-73
2022/08/10 04:03:18;;;;;;;;;;;;;;;18.11;47.77;97098.63;5044288;28;19964;-73
2022/08/10 04:05:44;;;;;;;;;;;;;;;18.11;47.77;97091.44;5039491;28;19959;-73
2022/08/10 04:08:11;;;;;;;;;;;;;;;18.13;47.79;97093.84;5045897;28;19970;-73
2022/08/10 04:10:36;;;;;;;;;;;;;;;18.13;48.46;97096.50;5044020;28;19965;-73
2022/08/10 04:13:02;;;;;;;;;;;;;;;18.15;48.27;97107.69;5046616;28;20033;-72
2022/08/10 04:15:28;;;;;;;;;;;;;;;18.15;48.10;97105.03;5048052;28;19962;-74
2022/08/10 04:17:54;;;;;;;;;;;;;;;18.17;48.66;97109.03;5046475;28;19960;-72
2022/08/10 04:20:30;;;;;;;;;;;;;;;18.18;47.79;97107.97;5043000;28;19970;-72
2022/08/10 04:22:58;;;;;;;;;;;;;;;18.17;48.60;97105.59;5046904;28;19960;-72
2022/08/10 04:25:25;;;;;;;;;;;;;;;18.18;48.66;97115.94;5050586;28;19953;-73
2022/08/10 04:27:52;;;;;;;;;;;;;;;18.17;47.76;97113.53;5044682;28;19965;-73
2022/08/10 04:30:18;;;;;;;;;;;;;;;18.15;49.18;97119.09;5047082;28;19963;-73
2022/08/10 04:32:46;;;;;;;;;;;;;;;18.13;47.49;97115.88;5040540;28;19973;-72
2022/08/10 04:35:12;;;;;;;;;;;;;;;18.07;47.28;97118.75;5041375;28;19953;-72
2022/08/10 04:37:38;;;;;;;;;;;;;;;18.00;48.15;97111.78;5045293;28;19964;-74
2022/08/10 04:40:05;;;;;;;;;;;;;;;17.95;48.34;97124.19;5049442;28;19955;-73
2022/08/10 04:42:31;;;;;;;;;;;;;;;17.90;49.00;97119.63;5047133;28;19957;-74
2022/08/10 04:44:56;;;;;;;;;;;;;;;17.82;48.44;97118.19;5045363;28;20348;-72
2022/08/10 04:47:22;;;;;;;;;;;;;;;17.79;49.66;97123.97;5039983;28;19956;-73
2022/08/10 04:49:48;;;;;;;;;;;;;;;17.81;49.59;97127.19;5045415;28;19963;-72
2022/08/10 04:52:14;;;;;;;;;;;;;;;17.83;49.14;97122.47;5046505;28;20010;-72
2022/08/10 04:54:40;;;;;;;;;;;;;;;17.89;49.21;97127.81;5038983;28;19956;-72
2022/08/10 04:57:06;;;;;;;;;;;;;;;17.95;49.10;97130.28;5043416;28;20334;-73
2022/08/10 04:59:32;;;;;;;;;;;;;;;18.03;48.45;97129.03;5046728;28;19969;-72
2022/08/10 05:01:57;;;;;;;;;;;;;;;18.11;49.03;97123.31;5045574;28;19956;-72
2022/08/10 05:04:23;;;;;;;;;;;;;;;18.24;48.92;97135.38;5036559;28;20053;-73
2022/08/10 05:06:49;;;;;;;;;;;;;;;18.36;47.80;97129.94;5044899;28;19969;-73
2022/08/10 05:09:15;;;;;;;;;;;;;;;18.48;48.44;97129.75;5044555;28;20341;-72
2022/08/10 05:11:42;;;;;;;;;;;;;;;18.58;48.60;97136.00;5046193;28;19997;-73
2022/08/10 05:14:08;;;;;;;;;;;;;;;18.73;47.97;97137.16;5047525;28;19970;-73
2022/08/10 05:16:34;;;;;;;;;;;;;;;18.83;47.59;97122.13;5043810;28;19992;-72
2022/08/10 05:19:00;;;;;;;;;;;;;;;18.96;47.77;97130.72;5040732;28;20011;-72
2022/08/10 05:21:26;;;;;;;;;;;;;;;19.06;47.15;97130.81;5040019;28;20002;-73
2022/08/10 05:23:52;;;;;;;;;;;;;;;19.22;47.34;97135.16;5042849;28;20333;-72
2022/08/10 05:26:18;;;;;;;;;;;;;;;19.43;46.86;97132.63;5043893;28;20007;-72
2022/08/10 05:28:43;;;;;;;;;;;;;;;19.64;46.59;97129.00;5041651;28;19989;-73
2022/08/10 05:31:09;;;;;;;;;;;;;;;19.89;46.39;97134.75;5040022;28;20010;-72
2022/08/10 05:33:35;;;;;;;;;;;;;;;20.18;45.88;97127.09;5046391;28;19961;-72
2022/08/10 05:36:02;;;;;;;;;;;;;;;20.48;45.52;97121.03;5041812;28;20001;-73
2022/08/10 05:38:28;;;;;;;;;;;;;;;20.76;44.95;97117.06;5042212;28;19962;-73
2022/08/10 05:40:54;;;;;;;;;;;;;;;21.08;44.72;97119.47;5044745;28;19958;-72
2022/08/10 05:43:20;;;;;;;;;;;;;;;21.37;43.92;97112.72;5043084;28;20337;-73
2022/08/10 05:45:47;;;;;;;;;;;;;;;21.56;43.09;97100.44;5044642;28;19958;-73
2022/08/10 05:48:13;;;;;;;;;;;;;;;21.84;42.70;97098.19;5042567;28;19961;-72
2022/08/10 05:50:39;;;;;;;;;;;;;;;22.14;42.33;97096.44;5041840;28;19968;-72
2022/08/10 05:53:05;;;;;;;;;;;;;;;22.42;41.76;97090.38;5043383;28;19967;-73
2022/08/10 05:55:31;;;;;;;;;;;;;;;22.65;41.23;97094.22;5043273;28;19960;-73
2022/08/10 05:57:58;;;;;;;;;;;;;;;22.90;40.63;97095.09;5047607;28;19990;-73
2022/08/10 06:00:24;;;;;;;;;;;;;;;23.14;40.23;97094.34;5044408;28;19975;-73
2022/08/10 06:02:54;;;;;;;;;;;;;;;23.32;40.97;97096.31;5036575;28;20325;-73
2022/08/10 06:05:33;;;;;;;;;;;;;;;23.48;40.11;97092.41;5043176;28;19959;-73
2022/08/10 06:08:01;;;;;;;;;;;;;;;23.65;39.80;97088.47;5041336;28;19970;-73
2022/08/10 06:10:27;;;;;;;;;;;;;;;23.74;38.41;97085.94;5040827;28;19957;-72
2022/08/10 06:15:40;;;;;;;;;;;;;;;23.94;38.66;97096.44;5049701;28;20354;-73
2022/08/10 06:18:06;;;;;;;;;;;;;;;24.03;38.69;97094.69;5043906;28;19966;-73
2022/08/10 06:20:32;;;;;;;;;;;;;;;24.09;38.87;97088.16;5047597;28;20427;-73
2022/08/10 06:22:59;;;;;;;;;;;;;;;24.15;38.51;97094.28;5044959;28;19954;-73
2022/08/10 06:25:26;;;;;;;;;;;;;;;24.20;38.47;97098.75;5049517;28;19960;-73
2022/08/10 06:27:53;;;;;;;;;;;;;;;24.19;38.42;97094.47;5044308;28;19958;-74
2022/08/10 06:30:20;;;;;;;;;;;;;;;24.20;38.53;97096.88;5047761;28;19975;-73
2022/08/10 06:32:48;;;;;;;;;;;;;;;24.30;38.29;97093.25;5046949;28;19969;-73
2022/08/10 06:35:15;;;;;;;;;;;;;;;24.34;37.91;97086.22;5047204;28;19982;-73
2022/08/10 06:37:41;;;;;;;;;;;;;;;24.40;38.04;97092.28;5044198;28;19953;-73
2022/08/10 06:40:07;;;;;;;;;;;;;;;24.47;37.74;97095.41;5046775;28;19962;-73
2022/08/10 06:42:36;;;;;;;;;;;;;;;24.61;38.00;97098.97;5049241;28;20421;-73
2022/08/10 06:45:08;;;;;;;;;;;;;;;24.70;37.95;97083.78;5048644;28;20407;-73
2022/08/10 06:47:42;;;;;;;;;;;;;;;24.71;37.70;97081.91;5053919;28;19956;-74
2022/08/10 06:50:29;;;;;;;;;;;;;;;24.76;37.65;97089.88;5037883;28;19960;-73
2022/08/10 06:52:56;;;;;;;;;;;;;;;24.84;37.08;97083.84;5037117;28;19970;-74
2022/08/10 06:55:23;;;;;;;;;;;;;;;24.90;37.11;97074.63;5037429;28;19959;-73
2022/08/10 06:57:51;;;;;;;;;;;;;;;24.91;36.87;97078.88;5046986;28;20407;-73
2022/08/10 07:00:17;;;;;;;;;;;;;;;24.87;36.54;97083.25;5046946;28;20414;-73
2022/08/10 07:02:47;;;;;;;;;;;;;;;24.87;36.44;97080.56;5045401;28;19967;-74
2022/08/10 07:05:15;;;;;;;;;;;;;;;24.95;36.53;97083.66;5047578;28;20353;-73
2022/08/10 07:07:42;;;;;;;;;;;;;;;24.99;36.79;97088.16;5047296;28;20322;-73
2022/08/10 07:10:09;;;;;;;;;;;;;;;24.99;36.21;97082.78;5051958;28;19962;-73
2022/08/10 07:12:35;;;;;;;;;;;;;;;24.97;36.35;97084.97;5046175;28;19976;-73
2022/08/10 07:15:02;;;;;;;;;;;;;;;24.99;36.71;97092.69;5044833;28;19956;-72
2022/08/10 07:17:29;;;;;;;;;;;;;;;25.01;36.53;97087.84;5042468;28;19953;-73
2022/08/10 07:19:57;;;;;;;;;;;;;;;25.04;36.63;97084.56;5045847;28;20399;-74
2022/08/10 07:22:24;;;;;;;;;;;;;;;25.04;36.28;97082.69;5043291;28;19962;-74
2022/08/10 07:24:51;;;;;;;;;;;;;;;25.12;36.71;97090.06;5050272;28;19959;-73
2022/08/10 07:27:18;;;;;;;;;;;;;;;25.28;36.66;97085.25;5045962;28;19959;-73
2022/08/10 07:29:45;;;;;;;;;;;;;;;25.34;35.78;97077.88;5049335;28;19980;-73
2022/08/10 07:32:11;;;;;;;;;;;;;;;25.39;35.92;97080.47;5044047;28;19978;-73
2022/08/10 07:34:38;;;;;;;;;;;;;;;25.38;34.72;97080.75;5042834;28;19968;-73
2022/08/10 07:37:06;;;;;;;;;;;;;;;25.42;35.59;97085.22;5052570;28;20015;-73
2022/08/10 07:39:34;;;;;;;;;;;;;;;25.39;34.23;97077.78;5045648;28;19964;-73
2022/08/10 07:42:01;;;;;;;;;;;;;;;25.26;35.04;97087.41;5049793;28;19954;-73
2022/08/10 07:44:28;;;;;;;;;;;;;;;25.17;36.09;97099.09;5048911;28;19977;-73
2022/08/10 07:46:56;;;;;;;;;;;;;;;25.21;35.54;97082.13;5048088;28;19971;-73
2022/08/10 07:49:25;;;;;;;;;;;;;;;25.27;35.78;97089.00;5046558;28;19966;-74
2022/08/10 07:51:52;;;;;;;;;;;;;;;25.28;34.44;97079.06;5057498;28;20435;-73
2022/08/10 07:54:19;;;;;;;;;;;;;;;25.08;33.90;97078.31;5047935;28;20412;-74
2022/08/10 07:56:47;;;;;;;;;;;;;;;25.01;35.42;97085.97;5045612;28;19965;-74
2022/08/10 07:59:14;;;;;;;;;;;;;;;25.06;34.56;97083.19;5045103;28;20305;-73
2022/08/10 08:01:47;;;;;;;;;;;;;;;25.06;34.82;97085.06;5046608;28;19968;-73
2022/08/10 08:04:13;;;;;;;;;;;;;;;24.89;34.70;97088.31;5043422;28;20857;-74
2022/08/10 08:06:41;;;;;;;;;;;;;;;24.73;35.15;97084.31;5045568;28;19970;-74
2022/08/10 08:09:07;;;;;;;;;;;;;;;24.73;35.29;97089.66;5046599;28;19970;-73
2022/08/10 08:11:35;;;;;;;;;;;;;;;24.74;34.68;97085.88;5036297;28;19983;-73
2022/08/10 08:14:03;;;;;;;;;;;;;;;24.97;35.57;97089.50;5051650;28;19977;-73
2022/08/10 08:16:30;;;;;;;;;;;;;;;25.36;35.90;97091.00;5045446;28;19964;-73
2022/08/10 08:18:57;;;;;;;;;;;;;;;25.59;34.41;97083.84;5039932;28;20419;-74
2022/08/10 08:21:24;;;;;;;;;;;;;;;25.62;33.61;97083.22;5066171;28;20337;-73
2022/08/10 08:23:50;;;;;;;;;;;;;;;25.64;34.32;97086.41;5045831;28;20439;-73
2022/08/10 08:26:17;;;;;;;;;;;;;;;25.73;34.77;97088.09;5045740;28;19962;-75
2022/08/10 08:28:44;;;;;;;;;;;;;;;25.85;34.20;97079.53;5048693;28;19985;-73
2022/08/10 08:31:12;;;;;;;;;;;;;;;25.84;33.14;97079.84;5060245;28;19962;-76
2022/08/10 08:33:39;;;;;;;;;;;;;;;25.80;34.34;97089.59;5044251;28;19973;-73
2022/08/10 08:36:05;;;;;;;;;;;;;;;25.89;33.46;97087.81;5038159;28;20368;-74
2022/08/10 08:38:31;;;;;;;;;;;;;;;25.99;33.75;97082.22;5046053;28;19960;-73
2022/08/10 08:41:02;;;;;;;;;;;;;;;25.99;33.56;97084.13;5049094;28;19967;-73
2022/08/10 08:43:37;;;;;;;;;;;;;;;25.84;32.05;97071.78;5044115;28;20340;-73
2022/08/10 08:46:27;;;;;;;;;;;;;;;26.01;33.55;97071.16;5041152;28;19951;-73
2022/08/10 08:48:53;;;;;;;;;;;;;;;26.11;33.28;97079.81;5044543;28;19954;-73
2022/08/10 08:51:32;;;;;;;;;;;;;;;26.15;33.54;97079.22;5041062;28;19968;-73
2022/08/10 08:54:07;;;;;;;;;;;;;;;25.97;32.21;97070.19;5045160;28;19975;-74
2022/08/10 08:56:35;;;;;;;;;;;;;;;25.89;32.70;97075.19;5046835;28;19958;-74
2022/08/10 08:59:07;;;;;;;;;;;;;;;25.97;33.33;97078.25;5043603;28;19956;-73
2022/08/10 09:01:36;;;;;;;;;;;;;;;26.16;33.14;97076.19;5045538;28;20322;-73
2022/08/10 09:04:20;;;;;;;;;;;;;;;26.26;32.12;97069.81;5040526;28;20464;-74
2022/08/10 09:07:06;;;;;;;;;;;;;;;26.25;33.02;97073.59;5037141;28;19955;-74
2022/08/10 09:09:35;;;;;;;;;;;;;;;26.38;32.89;97067.38;5043291;28;19950;-73
2022/08/10 09:12:19;;;;;;;;;;;;;;;26.48;32.71;97069.81;5041985;28;19955;-74
2022/08/10 09:15:07;;;;;;;;;;;;;;;26.60;32.13;97074.66;5035495;28;19957;-74
2022/08/10 09:17:45;;;;;;;;;;;;;;;26.28;30.31;97060.31;5045693;28;19961;-74
2022/08/10 09:20:32;;;;;;;;;;;;;;;26.25;31.28;97063.63;5045324;28;19957;-74
2022/08/10 09:23:13;;;;;;;;;;;;;;;26.07;31.28;97065.38;5042659;28;19973;-73
2022/08/10 09:25:47;;;;;;;;;;;;;;;25.80;31.35;97071.56;5041465;28;19950;-74
2022/08/10 09:28:18;;;;;;;;;;;;;;;25.96;32.38;97066.72;5040720;28;19987;-73
2022/08/10 09:31:04;;;;;;;;;;;;;;;26.21;32.27;97069.94;5039019;28;19963;-74
2022/08/10 09:33:46;;;;;;;;;;;;;;;26.28;30.90;97044.19;5041350;28;19980;-73
2022/08/10 09:36:24;;;;;;;;;;;;;;;26.31;29.88;97046.28;5032702;28;20415;-73
2022/08/10 09:39:17;;;;;;;;;;;;;;;26.38;30.49;97053.13;5050876;28;19953;-73
2022/08/10 09:41:58;;;;;;;;;;;;;;;26.45;30.11;97065.03;5033070;28;19965;-73
2022/08/10 09:44:24;;;;;;;;;;;;;;;26.48;30.16;97050.19;5047215;28;20416;-74
2022/08/10 09:46:50;;;;;;;;;;;;;;;26.57;29.24;97052.97;5037700;28;20370;-73
2022/08/10 09:49:35;;;;;;;;;;;;;;;26.51;28.56;97049.56;5043487;28;19980;-74
2022/08/10 09:52:06;;;;;;;;;;;;;;;26.34;29.46;97055.63;5047384;28;19951;-74
2022/08/10 09:54:41;;;;;;;;;;;;;;;26.33;28.83;97051.34;5046595;28;19958;-73
2022/08/10 09:57:15;;;;;;;;;;;;;;;26.36;26.87;97049.97;5044712;28;19959;-74
2022/08/10 10:00:02;;;;;;;;;;;;;;;26.44;28.00;97041.94;5038009;28;20344;-73
2022/08/10 10:02:34;;;;;;;;;;;;;;;26.49;27.34;97052.56;5046596;28;19957;-74
2022/08/10 10:05:03;;;;;;;;;;;;;;;26.54;28.67;97057.03;5045035;28;19965;-73
2022/08/10 10:07:29;;;;;;;;;;;;;;;26.46;27.59;97047.03;5047335;28;19963;-73
2022/08/10 10:09:55;;;;;;;;;;;;;;;26.25;28.15;97046.72;5043947;28;19972;-73
2022/08/10 10:12:28;;;;;;;;;;;;;;;26.38;28.99;97045.84;5040788;28;19972;-73
2022/08/10 10:17:48;;;;;;;;;;;;;;;26.69;27.80;97029.78;5043413;28;20444;-73
2022/08/10 10:20:24;;;;;;;;;;;;;;;26.64;27.02;97046.03;5027650;28;19962;-73
2022/08/10 10:22:50;;;;;;;;;;;;;;;26.72;27.76;97047.22;5043814;28;19968;-73
2022/08/10 10:25:29;;;;;;;;;;;;;;;26.69;27.21;97053.19;5040241;28;20416;-74
2022/08/10 10:28:13;;;;;;;;;;;;;;;26.62;25.86;97067.09;5044814;28;20420;-73
2022/08/10 10:30:56;;;;;;;;;;;;;;;26.62;25.32;97050.16;5044896;28;19958;-77
2022/08/10 10:33:45;;;;;;;;;;;;;;;26.71;26.81;97046.41;5043782;28;19979;-73
2022/08/10 10:36:14;;;;;;;;;;;;;;;26.92;27.04;97045.88;5018398;28;20420;-74
2022/08/10 10:38:41;;;;;;;;;;;;;;;26.97;25.89;97042.28;5037803;28;19959;-75
2022/08/10 10:41:12;;;;;;;;;;;;;;;26.96;26.22;97043.38;5040127;28;20422;-73
2022/08/10 10:43:41;;;;;;;;;;;;;;;26.89;25.55;97054.59;5050565;28;19975;-74
2022/08/10 10:46:16;;;;;;;;;;;;;;;26.83;25.54;97032.38;5043920;28;19953;-74
2022/08/10 10:48:42;;;;;;;;;;;;;;;26.96;26.74;97037.97;5042669;28;19977;-74
2022/08/10 10:51:26;;;;;;;;;;;;;;;27.03;25.02;97035.66;5040685;28;19961;-74
2022/08/10 10:54:09;;;;;;;;;;;;;;;27.06;26.02;97038.50;5040526;28;20044;-74
2022/08/10 10:56:50;;;;;;;;;;;;;;;27.24;26.05;97023.25;5027533;28;19960;-74
2022/08/10 10:59:24;;;;;;;;;;;;;;;27.28;25.59;97044.97;5039998;28;19970;-74
2022/08/10 11:02:13;;;;;;;;;;;;;;;27.48;26.39;97025.53;5041956;28;20389;-74
2022/08/10 11:05:08;;;;;;;;;;;;;;;27.64;25.87;97031.28;5033349;28;19955;-74
2022/08/10 11:07:41;;;;;;;;;;;;;;;27.68;25.73;97023.38;4991975;28;20442;-74
2022/08/10 11:10:09;;;;;;;;;;;;;;;27.74;25.81;97014.03;5039818;28;19957;-74
2022/08/10 11:12:48;;;;;;;;;;;;;;;27.73;25.55;97015.91;5051591;28;19979;-74
2022/08/10 11:15:39;;;;;;;;;;;;;;;27.66;25.73;97020.19;5048487;28;19958;-74
2022/08/10 11:18:23;;;;;;;;;;;;;;;27.62;25.03;97013.84;5047347;28;19951;-75
2022/08/10 11:21:08;;;;;;;;;;;;;;;27.59;26.09;97012.56;5049537;28;19970;-76
2022/08/10 11:23:38;;;;;;;;;;;;;;;27.71;26.17;97017.34;5044913;28;19978;-76
2022/08/10 11:26:11;;;;;;;;;;;;;;;27.93;25.30;97021.84;5041977;28;19950;-75
2022/08/10 11:28:43;;;;;;;;;;;;;;;27.78;24.96;97023.03;5043999;28;20441;-74
2022/08/10 11:31:16;;;;;;;;;;;;;;;27.92;25.67;97015.63;5045428;28;19966;-75
2022/08/10 11:33:42;;;;;;;;;;;;;;;28.02;24.73;97019.94;5050986;28;19965;-75
2022/08/10 11:36:15;;;;;;;;;;;;;;;27.99;25.04;97006.28;5046973;28;20295;-75
2022/08/10 11:38:50;;;;;;;;;;;;;;;28.03;25.61;97013.41;5044220;28;19961;-73
2022/08/10 11:41:24;;;;;;;;;;;;;;;28.05;25.30;97011.19;5041864;28;20411;-75
2022/08/10 11:44:02;;;;;;;;;;;;;;;28.03;24.39;97015.31;5045705;28;19958;-74
2022/08/10 11:46:32;;;;;;;;;;;;;;;28.10;24.81;97010.25;5029548;28;19955;-75
2022/08/10 11:49:10;;;;;;;;;;;;;;;28.06;25.45;97010.09;5043731;28;19984;-74
2022/08/10 11:51:56;;;;;;;;;;;;;;;28.01;25.16;96993.28;5032539;28;19964;-74
2022/08/10 11:54:30;;;;;;;;;;;;;;;28.06;24.98;97007.41;5046470;28;20418;-74
2022/08/10 11:56:57;;;;;;;;;;;;;;;28.26;25.21;97024.03;5042345;28;19956;-75
2022/08/10 12:02:13;;;;;;;;;;;;;;;28.59;24.24;96996.56;5051831;28;19954;-75
2022/08/10 12:04:51;;;;;;;;;;;;;;;28.79;24.40;96998.59;5047126;28;19966;-74
2022/08/10 12:07:20;;;;;;;;;;;;;;;28.95;24.33;97002.31;5047048;28;19956;-74
2022/08/10 12:09:47;;;;;;;;;;;;;;;28.93;24.79;96993.75;5045173;28;19954;-74
2022/08/10 12:12:14;;;;;;;;;;;;;;;28.97;24.17;96991.19;5060060;28;19958;-75
2022/08/10 12:14:45;;;;;;;;;;;;;;;28.89;24.86;96989.31;5052005;28;19977;-74
2022/08/10 12:17:16;;;;;;;;;;;;;;;29.18;24.95;96990.50;5043003;28;20339;-75
2022/08/10 12:19:45;;;;;;;;;;;;;;;29.20;24.23;96985.56;5044436;28;19964;-75
2022/08/10 12:22:15;;;;;;;;;;;;;;;29.29;24.20;96984.41;5045641;28;19963;-74
2022/08/10 12:24:47;;;;;;;;;;;;;;;29.27;22.79;96997.44;5043735;28;19967;-75
2022/08/10 12:27:22;;;;;;;;;;;;;;;29.33;22.71;96982.59;5047301;28;19984;-75
2022/08/10 12:30:00;;;;;;;;;;;;;;;28.97;23.12;96980.38;5050783;28;19982;-76
2022/08/10 12:32:49;;;;;;;;;;;;;;;28.98;23.68;96998.19;5045026;28;19964;-77
2022/08/10 12:35:19;;;;;;;;;;;;;;;28.84;23.29;96989.50;5034419;28;20334;-75
2022/08/10 12:37:49;;;;;;;;;;;;;;;28.80;23.23;97004.75;5045260;28;20403;-78
2022/08/10 12:40:21;;;;;;;;;;;;;;;28.82;23.94;96991.72;5041026;28;19964;-74
2022/08/10 12:42:59;;;;;;;;;;;;;;;28.82;23.58;96991.72;5047794;28;19953;-75
2022/08/10 12:45:33;;;;;;;;;;;;;;;28.79;23.79;96986.97;5046709;28;20404;-74
2022/08/10 12:48:04;;;;;;;;;;;;;;;28.86;23.14;96971.06;5035758;28;20418;-75
2022/08/10 12:50:48;;;;;;;;;;;;;;;29.00;24.88;96971.66;5047516;28;19980;-74
2022/08/10 12:53:20;;;;;;;;;;;;;;;29.14;23.64;96968.75;5050804;28;19976;-74
2022/08/10 12:55:47;;;;;;;;;;;;;;;29.09;22.64;96964.28;5043985;28;19960;-75
2022/08/10 12:58:16;;;;;;;;;;;;;;;28.97;23.14;96966.09;5042053;28;19958;-75
2022/08/10 13:00:42;;;;;;;;;;;;;;;28.88;23.63;96974.25;5040661;28;19965;-75
2022/08/10 13:03:08;;;;;;;;;;;;;;;28.73;23.62;96967.47;5049028;28;19972;-75
2022/08/10 13:05:35;;;;;;;;;;;;;;;28.76;23.84;96956.03;5040536;28;19952;-74
2022/08/10 13:11:13;;;;;;;;;;;;;;;29.08;24.08;96965.44;5030788;28;19958;-75
2022/08/10 13:13:42;;;;;;;;;;;;;;;29.12;22.92;96957.47;5033678;28;20430;-74
2022/08/10 13:16:08;;;;;;;;;;;;;;;29.02;23.43;96953.22;5038927;28;19954;-74